createdAt,value
2023-05-03T00:02:12.187Z,0.00
2023-05-03T00:04:40.448Z,0.00
2023-05-03T00:07:08.586Z,0.00
2023-05-03T00:09:35.788Z,0.00
2023-05-03T00:12:03.580Z,0.00
2023-05-03T00:14:30.852Z,0.00
2023-05-03T00:16:58.250Z,0.00
2023-05-03T00:19:33.038Z,0.00
2023-05-03T00:22:00.586Z,0.00
2023-05-03T00:24:27.883Z,0.00
2023-05-03T00:26:55.068Z,0.00
2023-05-03T00:29:23.137Z,0.00
2023-05-03T00:31:50.386Z,0.35
2023-05-03T00:34:17.625Z,0.00
2023-05-03T00:36:44.808Z,0.10
2023-05-03T00:39:12.435Z,0.00
2023-05-03T00:41:40.116Z,0.00
2023-05-03T00:44:07.394Z,0.00
2023-05-03T00:46:34.838Z,0.28
2023-05-03T00:49:02.183Z,0.00
2023-05-03T00:51:29.375Z,0.00
2023-05-03T00:53:57.287Z,0.00
2023-05-03T00:56:24.527Z,0.00
2023-05-03T00:58:54.590Z,0.00
2023-05-03T01:01:21.794Z,0.00
2023-05-03T01:03:50.730Z,0.30
2023-05-03T01:06:32.082Z,0.00
2023-05-03T01:09:08.658Z,0.00
2023-05-03T01:11:45.401Z,0.00
2023-05-03T01:14:12.591Z,0.00
2023-05-03T01:16:54.542Z,0.00
2023-05-03T01:19:36.272Z,0.23
2023-05-03T01:22:16.418Z,0.00
2023-05-03T01:24:46.689Z,0.00
2023-05-03T01:27:14.066Z,0.00
2023-05-03T01:29:41.300Z,0.00
2023-05-03T01:32:14.083Z,0.28
2023-05-03T01:34:47.419Z,0.00
2023-05-03T01:37:15.004Z,0.10
2023-05-03T01:39:42.197Z,0.00
2023-05-03T01:42:09.416Z,0.00
2023-05-03T01:44:37.459Z,0.00
2023-05-03T01:47:04.667Z,0.10
2023-05-03T01:49:32.023Z,0.00
2023-05-03T01:51:59.243Z,0.00
2023-05-03T01:54:26.483Z,0.00
2023-05-03T01:56:53.684Z,0.10
2023-05-03T01:59:20.860Z,0.10
2023-05-03T02:01:48.071Z,0.03
2023-05-03T02:04:15.400Z,0.05
2023-05-03T02:06:42.767Z,0.00
2023-05-03T02:09:10.547Z,0.00
2023-05-03T02:11:37.757Z,0.00
2023-05-03T02:14:05.040Z,0.00
2023-05-03T02:16:32.291Z,0.10
2023-05-03T02:18:59.874Z,0.00
2023-05-03T02:21:27.512Z,0.00
2023-05-03T02:23:54.704Z,0.00
2023-05-03T02:26:21.958Z,0.20
2023-05-03T02:28:49.102Z,0.10
2023-05-03T02:31:16.358Z,0.00
2023-05-03T02:33:43.636Z,0.00
2023-05-03T02:36:11.032Z,0.00
2023-05-03T02:38:38.245Z,0.00
2023-05-03T02:41:05.547Z,0.00
2023-05-03T02:43:32.834Z,0.35
2023-05-03T02:46:00.135Z,0.30
2023-05-03T02:48:27.367Z,0.00
2023-05-03T02:50:55.019Z,0.25
2023-05-03T02:53:22.247Z,0.00
2023-05-03T02:55:50.606Z,0.00
2023-05-03T02:58:17.900Z,0.00
2023-05-03T03:00:45.151Z,0.00
2023-05-03T03:03:12.411Z,0.00
2023-05-03T03:05:39.707Z,0.00
2023-05-03T03:08:07.259Z,0.00
2023-05-03T03:10:34.532Z,0.00
2023-05-03T03:13:01.822Z,0.00
2023-05-03T03:15:29.268Z,0.00
2023-05-03T03:17:58.232Z,0.00
2023-05-03T03:20:25.627Z,0.00
2023-05-03T03:22:52.853Z,0.22
2023-05-03T03:25:21.271Z,0.00
2023-05-03T03:27:48.508Z,0.00
2023-05-03T03:30:15.921Z,0.25
2023-05-03T03:32:43.146Z,0.00
2023-05-03T03:35:10.912Z,0.30
2023-05-03T03:37:39.224Z,0.10
2023-05-03T03:40:07.794Z,0.00
2023-05-03T03:42:35.038Z,0.00
2023-05-03T03:45:02.248Z,0.00
2023-05-03T03:47:29.491Z,0.25
2023-05-03T03:49:57.040Z,0.10
2023-05-03T03:52:24.571Z,0.00
2023-05-03T03:54:52.213Z,0.00
2023-05-03T03:57:19.514Z,0.00
2023-05-03T03:59:46.835Z,0.00
2023-05-03T04:02:14.184Z,0.00
2023-05-03T04:04:41.512Z,0.00
2023-05-03T04:07:09.880Z,0.30
2023-05-03T04:09:37.078Z,0.00
2023-05-03T04:12:04.758Z,0.00
2023-05-03T04:14:32.112Z,0.00
2023-05-03T04:16:59.430Z,0.57
2023-05-03T04:19:26.607Z,0.10
2023-05-03T04:21:53.804Z,0.30
2023-05-03T04:24:21.225Z,0.00
2023-05-03T04:26:48.550Z,0.10
2023-05-03T04:29:15.782Z,0.00
2023-05-03T04:31:43.014Z,0.00
2023-05-03T04:34:10.679Z,0.15
2023-05-03T04:36:37.915Z,0.63
2023-05-03T04:39:06.374Z,0.00
2023-05-03T04:41:33.579Z,0.00
2023-05-03T04:44:00.925Z,0.10
2023-05-03T04:46:28.227Z,0.10
2023-05-03T04:48:56.487Z,0.00
2023-05-03T04:51:23.886Z,0.00
2023-05-03T04:53:51.094Z,0.17
2023-05-03T04:56:19.747Z,0.00
2023-05-03T04:58:47.130Z,0.00
2023-05-03T05:01:14.384Z,0.00
2023-05-03T05:03:41.907Z,0.10
2023-05-03T05:06:10.212Z,0.00
2023-05-03T05:08:37.468Z,0.00
2023-05-03T05:11:05.346Z,0.00
2023-05-03T05:13:32.552Z,0.00
2023-05-03T05:15:59.794Z,0.03
2023-05-03T05:18:27.026Z,0.00
2023-05-03T05:20:54.425Z,0.00
2023-05-03T05:23:21.589Z,0.00
2023-05-03T05:25:48.846Z,0.00
2023-05-03T05:28:16.063Z,0.00
2023-05-03T05:30:43.290Z,0.00
2023-05-03T05:33:10.609Z,0.03
2023-05-03T05:35:37.965Z,0.10
2023-05-03T05:38:05.400Z,0.00
2023-05-03T05:40:32.640Z,0.00
2023-05-03T05:42:59.801Z,0.57
2023-05-03T05:45:27.039Z,0.00
2023-05-03T05:47:54.344Z,0.03
2023-05-03T05:50:21.678Z,0.22
2023-05-03T05:52:52.711Z,1.00
2023-05-03T05:55:19.915Z,0.32
2023-05-03T05:57:47.525Z,0.10
2023-05-03T06:00:15.424Z,0.38
2023-05-03T06:02:43.080Z,0.10
2023-05-03T06:05:11.360Z,0.10
2023-05-03T06:07:38.688Z,0.28
2023-05-03T06:10:06.401Z,0.22
2023-05-03T06:12:33.832Z,0.25
2023-05-03T06:15:02.295Z,0.30
2023-05-03T06:17:29.943Z,0.22
2023-05-03T06:19:58.075Z,0.28
2023-05-03T06:22:25.710Z,0.25
2023-05-03T06:24:53.219Z,0.25
2023-05-03T06:27:20.556Z,2.00
2023-05-03T06:29:50.030Z,0.82
2023-05-03T06:32:17.371Z,0.30
2023-05-03T06:34:44.598Z,0.25
2023-05-03T06:37:11.995Z,0.20
2023-05-03T06:39:39.188Z,0.57
2023-05-03T06:42:06.604Z,0.40
2023-05-03T06:44:33.984Z,1.00
2023-05-03T06:47:01.475Z,0.55
2023-05-03T06:49:28.683Z,0.50
2023-05-03T06:51:55.929Z,0.65
2023-05-03T06:54:23.450Z,0.85
2023-05-03T06:56:50.657Z,0.22
2023-05-03T06:59:17.987Z,0.50
2023-05-03T07:01:46.146Z,0.75
2023-05-03T07:04:13.604Z,0.40
2023-05-03T07:06:55.400Z,0.40
2023-05-03T07:09:35.313Z,0.30
2023-05-03T07:12:09.086Z,0.82
2023-05-03T07:14:36.584Z,0.63
2023-05-03T07:17:03.865Z,0.40
2023-05-03T07:19:31.179Z,0.65
2023-05-03T07:21:58.448Z,0.35
2023-05-03T07:24:28.511Z,0.52
2023-05-03T07:26:55.881Z,0.47
2023-05-03T07:29:23.044Z,0.30
2023-05-03T07:31:52.051Z,0.80
2023-05-03T07:34:20.672Z,0.40
2023-05-03T07:36:47.857Z,0.20
2023-05-03T07:39:15.110Z,0.25
2023-05-03T07:41:42.255Z,0.47
2023-05-03T07:44:09.566Z,0.17
2023-05-03T07:46:36.849Z,0.38
2023-05-03T07:49:04.495Z,0.22
2023-05-03T07:51:35.686Z,0.20
2023-05-03T07:54:04.706Z,0.75
2023-05-03T07:56:34.519Z,0.40
2023-05-03T08:01:32.063Z,0.68
2023-05-03T08:03:59.513Z,0.40
2023-05-03T08:06:28.249Z,0.40
2023-05-03T08:08:55.794Z,0.35
2023-05-03T08:11:23.000Z,0.43
2023-05-03T08:13:50.195Z,0.40
2023-05-03T08:16:17.494Z,0.30
2023-05-03T08:18:44.728Z,0.30
2023-05-03T08:21:13.417Z,0.55
2023-05-03T08:23:40.700Z,0.30
2023-05-03T08:26:09.389Z,0.45
2023-05-03T08:28:36.572Z,0.43
2023-05-03T08:31:04.959Z,0.60
2023-05-03T08:33:32.571Z,0.30
2023-05-03T08:35:59.862Z,0.70
2023-05-03T08:38:27.350Z,0.70
2023-05-03T08:40:55.969Z,0.43
2023-05-03T08:43:24.975Z,1.27
2023-05-03T08:45:52.196Z,0.77
2023-05-03T08:48:19.480Z,0.32
2023-05-03T08:50:46.836Z,0.60
2023-05-03T08:53:14.067Z,0.77
2023-05-03T08:55:41.725Z,0.57
2023-05-03T08:58:12.932Z,0.60
2023-05-03T09:00:44.845Z,0.32
2023-05-03T09:03:12.737Z,0.77
2023-05-03T09:05:41.443Z,0.43
2023-05-03T09:08:09.970Z,0.85
2023-05-03T09:10:41.113Z,1.65
2023-05-03T09:13:09.149Z,0.63
2023-05-03T09:15:36.641Z,0.50
2023-05-03T09:18:15.692Z,0.47
2023-05-03T09:20:50.992Z,0.40
2023-05-03T09:23:31.271Z,0.40
2023-05-03T09:25:59.496Z,0.57
2023-05-03T09:28:27.416Z,0.30
2023-05-03T09:31:07.895Z,0.25
2023-05-03T09:33:35.423Z,0.40
2023-05-03T09:36:05.702Z,0.35
2023-05-03T09:38:34.015Z,0.70
2023-05-03T09:41:01.596Z,0.52
2023-05-03T09:43:28.887Z,0.57
2023-05-03T09:46:12.285Z,0.30
2023-05-03T09:48:40.232Z,0.35
2023-05-03T09:51:07.970Z,0.30
2023-05-03T09:53:36.303Z,0.35
2023-05-03T09:56:04.089Z,0.73
2023-05-03T09:58:31.277Z,0.70
2023-05-03T10:00:58.481Z,0.40
2023-05-03T10:03:30.771Z,0.35
2023-05-03T10:05:59.494Z,0.43
2023-05-03T10:08:34.956Z,0.45
2023-05-03T10:11:05.508Z,0.13
2023-05-03T10:13:32.782Z,0.38
2023-05-03T10:16:04.320Z,0.30
2023-05-03T10:18:32.774Z,0.30
2023-05-03T10:21:04.440Z,0.60
2023-05-03T10:23:31.634Z,0.23
2023-05-03T10:26:08.436Z,0.40
2023-05-03T10:28:35.881Z,0.45
2023-05-03T10:31:03.227Z,0.28
2023-05-03T10:33:35.237Z,0.38
2023-05-03T10:36:06.870Z,0.20
2023-05-03T10:38:34.118Z,0.20
2023-05-03T10:41:03.754Z,0.30
2023-05-03T10:51:37.032Z,0.50
2023-05-03T10:54:05.092Z,0.35
2023-05-03T10:56:32.323Z,0.75
2023-05-03T10:58:59.489Z,0.63
2023-05-03T11:01:28.051Z,0.22
2023-05-03T11:04:14.145Z,0.70
2023-05-03T11:06:42.073Z,0.55
2023-05-03T11:09:12.144Z,0.20
2023-05-03T11:11:40.959Z,1.02
2023-05-03T11:14:08.869Z,0.50
2023-05-03T11:16:37.150Z,0.57
2023-05-03T11:19:04.458Z,0.45
2023-05-03T11:21:32.089Z,0.52
2023-05-03T11:23:59.797Z,0.47
2023-05-03T11:26:27.600Z,0.30
2023-05-03T11:28:54.969Z,0.30
2023-05-03T11:31:22.990Z,0.28
2023-05-03T11:33:51.341Z,0.80
2023-05-03T11:36:18.651Z,0.60
2023-05-03T11:38:46.142Z,0.20
2023-05-03T11:41:17.478Z,1.65
2023-05-03T11:43:45.582Z,0.50
2023-05-03T11:46:14.589Z,0.28
2023-05-03T11:48:43.959Z,0.50
2023-05-03T11:51:12.549Z,0.10
2023-05-03T11:53:40.306Z,0.30
2023-05-03T11:56:08.979Z,0.38
2023-05-03T11:58:36.394Z,0.35
2023-05-03T12:01:04.111Z,0.43
2023-05-03T12:03:33.648Z,0.20
2023-05-03T12:06:02.838Z,0.47
2023-05-03T12:08:37.625Z,0.20
2023-05-03T12:11:07.554Z,0.15
2023-05-03T12:13:39.598Z,0.13
2023-05-03T12:18:56.503Z,0.22
2023-05-03T12:23:56.691Z,0.70
2023-05-03T12:26:25.720Z,1.63
2023-05-03T12:28:56.230Z,0.40
2023-05-03T12:31:24.434Z,0.30
2023-05-03T12:36:25.919Z,0.68
2023-05-03T12:38:56.416Z,0.10
2023-05-03T12:42:04.617Z,0.45
2023-05-03T12:44:17.080Z,0.25
2023-05-03T12:46:45.717Z,0.30
2023-05-03T12:49:15.216Z,0.30
2023-05-03T12:51:43.298Z,0.75
2023-05-03T12:54:12.225Z,0.80
2023-05-03T12:56:41.182Z,0.30
2023-05-03T13:02:39.277Z,0.30
2023-05-03T13:06:59.906Z,0.32
2023-05-03T13:09:37.624Z,0.30
2023-05-03T13:12:17.325Z,0.50
2023-05-03T13:14:44.687Z,0.65
2023-05-03T13:17:13.225Z,0.52
2023-05-03T13:19:41.963Z,0.40
2023-05-03T13:22:09.193Z,0.38
2023-05-03T13:24:36.776Z,0.55
2023-05-03T13:27:04.862Z,0.40
2023-05-03T13:29:32.078Z,0.40
2023-05-03T13:31:59.391Z,0.47
2023-05-03T13:34:26.960Z,0.60
2023-05-03T13:36:54.177Z,0.60
2023-05-03T13:39:21.491Z,0.40
2023-05-03T13:41:48.718Z,0.88
2023-05-03T13:44:16.124Z,0.10
2023-05-03T13:46:43.555Z,0.30
2023-05-03T13:49:11.050Z,1.00
2023-05-03T13:51:38.637Z,0.57
2023-05-03T13:54:07.076Z,0.75
2023-05-03T13:56:35.168Z,1.38
2023-05-03T13:59:02.965Z,0.40
2023-05-03T14:01:30.318Z,0.30
2023-05-03T14:03:57.608Z,0.30
2023-05-03T14:06:24.910Z,0.80
2023-05-03T14:08:58.150Z,0.50
2023-05-03T14:11:25.610Z,0.30
2023-05-03T14:13:57.028Z,0.40
2023-05-03T14:18:56.830Z,0.50
2023-05-03T14:21:24.672Z,0.70
2023-05-03T14:23:52.230Z,0.70
2023-05-03T14:26:20.809Z,0.35
2023-05-03T14:28:48.029Z,1.38
2023-05-03T14:31:16.493Z,0.40
2023-05-03T14:33:44.315Z,0.43
2023-05-03T14:36:12.515Z,0.52
2023-05-03T14:38:39.750Z,1.05
2023-05-03T14:41:07.806Z,1.00
2023-05-03T14:43:35.071Z,0.68
2023-05-03T14:46:02.452Z,0.82
2023-05-03T14:48:29.969Z,0.52
2023-05-03T14:50:57.740Z,0.70
2023-05-03T14:53:28.235Z,0.50
2023-05-03T14:55:55.666Z,0.60
2023-05-03T14:58:22.939Z,0.43
2023-05-03T15:00:50.129Z,0.35
2023-05-03T15:03:17.492Z,1.17
2023-05-03T15:05:46.495Z,0.52
2023-05-03T15:08:17.744Z,0.90
2023-05-03T15:10:45.008Z,0.60
2023-05-03T15:13:12.811Z,0.57
2023-05-03T15:15:40.570Z,0.20
2023-05-03T15:18:08.914Z,0.77
2023-05-03T15:20:36.675Z,0.82
2023-05-03T15:23:05.183Z,0.50
2023-05-03T15:25:32.882Z,0.35
2023-05-03T15:28:03.874Z,0.40
2023-05-03T15:30:32.209Z,0.40
2023-05-03T15:32:59.630Z,0.22
2023-05-03T15:35:27.325Z,0.30
2023-05-03T15:37:54.516Z,0.55
2023-05-03T15:40:24.438Z,0.40
2023-05-03T15:42:52.653Z,0.80
2023-05-03T15:45:20.820Z,0.60
2023-05-03T15:47:48.022Z,0.28
2023-05-03T15:50:15.483Z,0.80
2023-05-03T15:52:42.786Z,0.30
2023-05-03T15:55:10.456Z,0.82
2023-05-03T15:57:37.765Z,0.85
2023-05-03T16:00:15.006Z,0.32
2023-05-03T16:02:42.453Z,0.68
2023-05-03T16:05:11.170Z,0.90
2023-05-03T16:07:38.487Z,1.20
2023-05-03T16:10:06.381Z,0.10
2023-05-03T16:12:34.061Z,0.38
2023-05-03T16:15:01.594Z,0.60
2023-05-03T16:17:28.983Z,0.60
2023-05-03T16:19:56.246Z,0.40
2023-05-03T16:22:23.422Z,0.40
2023-05-03T16:24:51.231Z,0.45
2023-05-03T16:27:18.648Z,0.40
2023-05-03T16:29:45.859Z,0.35
2023-05-03T16:32:13.579Z,0.40
2023-05-03T16:34:40.783Z,0.45
2023-05-03T16:37:07.988Z,0.60
2023-05-03T16:39:35.200Z,0.20
2023-05-03T16:42:02.796Z,0.28
2023-05-03T16:44:29.989Z,0.50
2023-05-03T16:46:57.179Z,0.88
2023-05-03T16:49:24.524Z,0.50
2023-05-03T16:51:51.694Z,0.35
2023-05-03T16:54:18.910Z,0.55
2023-05-03T16:56:46.395Z,0.30
2023-05-03T16:59:13.630Z,0.57
2023-05-03T17:01:40.938Z,0.68
2023-05-03T17:04:08.700Z,0.45
2023-05-03T17:06:36.770Z,0.22
2023-05-03T17:09:04.543Z,0.50
2023-05-03T17:11:31.777Z,0.75
2023-05-03T17:14:02.130Z,0.80
2023-05-03T17:16:29.509Z,0.95
2023-05-03T17:18:56.767Z,0.47
2023-05-03T17:21:24.928Z,0.50
2023-05-03T17:23:52.177Z,0.47
2023-05-03T17:26:21.308Z,0.93
2023-05-03T17:28:48.564Z,0.28
2023-05-03T17:31:15.792Z,0.20
2023-05-03T17:33:43.047Z,0.47
2023-05-03T17:36:10.288Z,0.88
2023-05-03T17:38:37.535Z,0.73
2023-05-03T17:41:08.283Z,0.50
2023-05-03T17:43:36.032Z,0.60
2023-05-03T17:46:14.445Z,0.50
2023-05-03T17:48:43.857Z,0.70
2023-05-03T17:51:14.258Z,0.47
2023-05-03T17:53:43.064Z,0.68
2023-05-03T17:56:17.021Z,1.08
2023-05-03T17:58:44.756Z,0.30
2023-05-03T18:01:13.398Z,0.73
2023-05-03T18:03:44.273Z,0.20
2023-05-03T18:06:12.274Z,0.30
2023-05-03T18:08:39.582Z,0.47
2023-05-03T18:11:07.164Z,0.25
2023-05-03T18:13:34.410Z,0.17
2023-05-03T18:16:01.796Z,0.22
2023-05-03T18:18:29.457Z,0.63
2023-05-03T18:21:06.259Z,1.35
2023-05-03T18:23:33.880Z,0.30
2023-05-03T18:26:01.243Z,0.28
2023-05-03T18:28:28.422Z,0.13
2023-05-03T18:30:58.541Z,0.35
2023-05-03T18:33:25.694Z,0.20
2023-05-03T18:35:53.558Z,0.57
2023-05-03T18:38:21.561Z,0.65
2023-05-03T18:40:50.126Z,0.20
2023-05-03T18:43:17.484Z,0.28
2023-05-03T18:45:45.020Z,0.10
2023-05-03T18:48:12.330Z,0.55
2023-05-03T18:50:42.747Z,0.20
2023-05-03T18:53:13.918Z,0.20
2023-05-03T18:55:42.069Z,0.60
2023-05-03T18:58:09.254Z,0.43
2023-05-03T19:00:36.497Z,0.50
2023-05-03T19:03:04.194Z,0.20
2023-05-03T19:05:31.558Z,0.65
2023-05-03T19:07:59.836Z,0.08
2023-05-03T19:10:27.101Z,0.00
2023-05-03T19:12:54.502Z,0.25
2023-05-03T19:15:21.881Z,0.25
2023-05-03T19:17:49.221Z,0.17
2023-05-03T19:20:17.402Z,0.00
2023-05-03T19:22:44.658Z,0.20
2023-05-03T19:25:11.900Z,0.28
2023-05-03T19:27:39.235Z,0.13
2023-05-03T19:30:07.323Z,0.25
2023-05-03T19:32:38.816Z,0.00
2023-05-03T19:35:09.429Z,0.20
2023-05-03T19:37:36.744Z,0.10
2023-05-03T19:40:04.302Z,0.30
2023-05-03T19:42:31.775Z,0.00
2023-05-03T19:44:59.866Z,0.45
2023-05-03T19:47:27.223Z,0.00
2023-05-03T19:49:54.485Z,0.00
2023-05-03T19:52:21.661Z,0.20
2023-05-03T19:54:48.892Z,0.10
2023-05-03T19:57:16.112Z,0.20
2023-05-03T19:59:43.286Z,0.30
2023-05-03T20:02:10.560Z,0.10
2023-05-03T20:04:37.807Z,0.47
2023-05-03T20:07:05.131Z,0.30
2023-05-03T20:09:32.347Z,0.52
2023-05-03T20:11:59.991Z,0.17
2023-05-03T20:14:27.580Z,0.00
2023-05-03T20:16:54.818Z,0.00
2023-05-03T20:19:23.367Z,0.10
2023-05-03T20:21:50.613Z,0.00
2023-05-03T20:24:17.936Z,0.20
2023-05-03T20:26:45.500Z,0.40
2023-05-03T20:29:12.783Z,0.00
2023-05-03T20:31:40.087Z,0.08
2023-05-03T20:34:07.848Z,0.60
2023-05-03T20:36:35.160Z,0.05
2023-05-03T20:39:02.964Z,0.10
2023-05-03T20:41:30.129Z,0.03
2023-05-03T20:43:59.224Z,0.00
2023-05-03T20:46:26.977Z,0.15
2023-05-03T20:48:54.313Z,0.32
2023-05-03T20:51:21.623Z,0.08
2023-05-03T20:53:48.994Z,0.03
2023-05-03T20:56:16.591Z,0.00
2023-05-03T20:58:44.763Z,0.17
2023-05-03T21:01:12.134Z,0.00
2023-05-03T21:03:39.428Z,0.35
2023-05-03T21:06:06.979Z,0.03
2023-05-03T21:08:34.262Z,0.00
2023-05-03T21:11:01.542Z,0.17
2023-05-03T21:13:28.775Z,0.13
2023-05-03T21:15:56.165Z,0.03
2023-05-03T21:18:24.775Z,0.22
2023-05-03T21:20:53.796Z,0.10
2023-05-03T21:23:21.080Z,0.00
2023-05-03T21:25:48.352Z,0.10
2023-05-03T21:28:15.629Z,0.82
2023-05-03T21:30:43.904Z,0.15
2023-05-03T21:33:11.712Z,0.20
2023-05-03T21:35:39.056Z,0.03
2023-05-03T21:38:06.531Z,0.08
2023-05-03T21:40:33.744Z,0.00
2023-05-03T21:43:01.050Z,0.03
2023-05-03T21:45:28.317Z,0.22
2023-05-03T21:47:55.667Z,0.10
2023-05-03T21:50:23.624Z,0.35
2023-05-03T21:52:51.094Z,0.00
2023-05-03T21:55:18.598Z,0.45
2023-05-03T21:57:46.108Z,0.00
2023-05-03T22:00:19.904Z,0.10
2023-05-03T22:02:48.347Z,2.42
2023-05-03T22:05:15.806Z,2.33
2023-05-03T22:07:43.132Z,2.30
2023-05-03T22:10:10.514Z,3.13
2023-05-03T22:12:38.096Z,2.35
2023-05-03T22:15:05.570Z,2.03
2023-05-03T22:17:33.117Z,2.08
2023-05-03T22:20:00.338Z,2.70
2023-05-03T22:22:27.794Z,2.55
2023-05-03T22:24:55.697Z,3.13
2023-05-03T22:27:23.722Z,2.83
2023-05-03T22:29:51.202Z,2.60
2023-05-03T22:32:18.460Z,2.42
2023-05-03T22:34:46.264Z,2.58
2023-05-03T22:37:13.441Z,1.80
2023-05-03T22:39:40.726Z,2.53
2023-05-03T22:42:07.881Z,2.45
2023-05-03T22:44:35.319Z,2.20
2023-05-03T22:47:02.572Z,2.67
2023-05-03T22:49:29.920Z,2.63
2023-05-03T22:51:57.457Z,2.88
2023-05-03T22:54:25.287Z,2.65
2023-05-03T22:56:52.566Z,3.30
2023-05-03T22:59:19.697Z,2.58
2023-05-03T23:01:49.390Z,2.28
2023-05-03T23:04:16.972Z,2.88
2023-05-03T23:06:44.262Z,3.10
2023-05-03T23:09:11.789Z,3.17
2023-05-03T23:11:39.292Z,3.55
2023-05-03T23:14:06.858Z,3.20
2023-05-03T23:16:34.190Z,2.72
2023-05-03T23:19:01.378Z,3.05
2023-05-03T23:21:28.546Z,2.28
2023-05-03T23:23:55.789Z,2.53
2023-05-03T23:26:23.047Z,2.58
2023-05-03T23:28:51.275Z,2.58
2023-05-03T23:31:18.637Z,3.33
2023-05-03T23:33:46.482Z,2.90
2023-05-03T23:36:13.696Z,2.70
2023-05-03T23:38:40.977Z,3.00
2023-05-03T23:41:08.230Z,3.08
2023-05-03T23:43:35.419Z,2.80
2023-05-03T23:46:02.742Z,4.57
2023-05-03T23:48:31.577Z,2.65
2023-05-03T23:50:58.813Z,3.03
2023-05-03T23:53:26.025Z,2.97
2023-05-03T23:55:53.177Z,2.97
2023-05-03T23:58:20.370Z,3.25
